sensor_id;sensor_type;location;lat;lon;timestamp;pressure;altitude;pressure_sealevel;temperature;humidity
8627;BME280;4351;51.422;6.794;2023-01-08T00:02:09;97441.97;;;10.07;100.00
8627;BME280;4351;51.422;6.794;2023-01-08T00:04:37;97435.06;;;10.13;100.00
8627;BME280;4351;51.422;6.794;2023-01-08T00:07:05;97434.56;;;10.18;100.00
8627;BME280;4351;51.422;6.794;2023-01-08T00:09:33;97446.84;;;10.12;100.00
8627;BME280;4351;51.422;6.794;2023-01-08T00:12:01;97447.19;;;10.17;100.00
8627;BME280;4351;51.422;6.794;2023-01-08T00:14:29;97445.16;;;10.19;100.00
8627;BME280;4351;51.422;6.794;2023-01-08T00:16:59;97456.09;;;10.09;100.00
8627;BME280;4351;51.422;6.794;2023-01-08T00:19:28;97439.72;;;10.36;100.00
8627;BME280;4351;51.422;6.794;2023-01-08T00:21:56;97461.47;;;10.26;100.00
8627;BME280;4351;51.422;6.794;2023-01-08T00:24:24;97477.81;;;10.08;100.00
8627;BME280;4351;51.422;6.794;2023-01-08T00:26:52;97466.34;;;10.22;100.00
8627;BME280;4351;51.422;6.794;2023-01-08T00:29:20;97484.00;;;10.25;100.00
8627;BME280;4351;51.422;6.794;2023-01-08T00:31:49;97495.97;;;10.31;100.00
8627;BME280;4351;51.422;6.794;2023-01-08T00:34:18;97484.50;;;10.37;100.00
8627;BME280;4351;51.422;6.794;2023-01-08T00:36:46;97502.03;;;10.24;100.00
8627;BME280;4351;51.422;6.794;2023-01-08T00:39:14;97511.13;;;10.23;100.00
8627;BME280;4351;51.422;6.794;2023-01-08T00:41:42;97512.13;;;10.31;100.00
8627;BME280;4351;51.422;6.794;2023-01-08T00:44:11;97514.16;;;10.29;100.00
8627;BME280;4351;51.422;6.794;2023-01-08T00:46:39;97511.44;;;10.37;100.00
8627;BME280;4351;51.422;6.794;2023-01-08T00:49:07;97528.31;;;10.31;100.00
8627;BME280;4351;51.422;6.794;2023-01-08T00:51:37;97525.25;;;10.26;100.00
8627;BME280;4351;51.422;6.794;2023-01-08T00:54:05;97532.69;;;10.15;100.00
8627;BME280;4351;51.422;6.794;2023-01-08T00:56:33;97528.47;;;10.21;100.00
8627;BME280;4351;51.422;6.794;2023-01-08T00:59:01;97520.88;;;10.24;100.00
8627;BME280;4351;51.422;6.794;2023-01-08T01:01:33;97507.41;;;10.41;100.00
8627;BME280;4351;51.422;6.794;2023-01-08T01:04:03;97517.16;;;10.34;100.00
8627;BME280;4351;51.422;6.794;2023-01-08T01:06:32;97533.00;;;10.20;100.00
8627;BME280;4351;51.422;6.794;2023-01-08T01:09:07;97517.84;;;10.28;100.00
8627;BME280;4351;51.422;6.794;2023-01-08T01:11:37;97523.56;;;10.24;100.00
8627;BME280;4351;51.422;6.794;2023-01-08T01:14:11;97529.31;;;10.21;100.00
8627;BME280;4351;51.422;6.794;2023-01-08T01:16:41;97535.19;;;10.25;100.00
8627;BME280;4351;51.422;6.794;2023-01-08T01:19:22;97536.72;;;10.19;100.00
8627;BME280;4351;51.422;6.794;2023-01-08T01:21:53;97543.44;;;10.23;100.00
8627;BME280;4351;51.422;6.794;2023-01-08T01:24:33;97520.03;;;10.32;100.00
8627;BME280;4351;51.422;6.794;2023-01-08T01:27:14;97532.84;;;10.22;100.00
8627;BME280;4351;51.422;6.794;2023-01-08T01:29:57;97550.88;;;10.13;100.00
8627;BME280;4351;51.422;6.794;2023-01-08T01:32:40;97548.66;;;10.17;100.00
8627;BME280;4351;51.422;6.794;2023-01-08T01:35:09;97560.97;;;10.11;100.00
8627;BME280;4351;51.422;6.794;2023-01-08T01:37:38;97551.34;;;10.25;100.00
8627;BME280;4351;51.422;6.794;2023-01-08T01:40:13;97543.25;;;10.33;100.00
8627;BME280;4351;51.422;6.794;2023-01-08T01:42:49;97554.72;;;10.19;100.00
8627;BME280;4351;51.422;6.794;2023-01-08T01:45:21;97566.00;;;10.14;100.00
8627;BME280;4351;51.422;6.794;2023-01-08T01:48:04;97556.06;;;10.23;100.00
8627;BME280;4351;51.422;6.794;2023-01-08T01:50:45;97568.19;;;10.19;100.00
8627;BME280;4351;51.422;6.794;2023-01-08T01:53:21;97566.34;;;10.11;100.00
8627;BME280;4351;51.422;6.794;2023-01-08T01:55:55;97556.25;;;10.21;100.00
8627;BME280;4351;51.422;6.794;2023-01-08T01:58:28;97541.44;;;10.26;100.00
8627;BME280;4351;51.422;6.794;2023-01-08T02:01:03;97557.94;;;10.06;100.00
8627;BME280;4351;51.422;6.794;2023-01-08T02:03:36;97542.78;;;10.13;100.00
8627;BME280;4351;51.422;6.794;2023-01-08T02:06:15;97556.09;;;9.98;100.00
8627;BME280;4351;51.422;6.794;2023-01-08T02:08:55;97531.50;;;10.09;100.00
8627;BME280;4351;51.422;6.794;2023-01-08T02:11:48;97526.63;;;10.13;100.00
8627;BME280;4351;51.422;6.794;2023-01-08T02:14:55;97513.31;;;10.20;100.00
8627;BME280;4351;51.422;6.794;2023-01-08T02:17:34;97521.25;;;10.05;100.00
8627;BME280;4351;51.422;6.794;2023-01-08T02:20:10;97515.03;;;9.96;100.00
8627;BME280;4351;51.422;6.794;2023-01-08T02:22:50;97511.97;;;9.99;100.00
8627;BME280;4351;51.422;6.794;2023-01-08T02:25:29;97498.50;;;9.99;100.00
8627;BME280;4351;51.422;6.794;2023-01-08T02:28:09;97488.44;;;9.93;100.00
8627;BME280;4351;51.422;6.794;2023-01-08T02:30:41;97482.56;;;9.89;100.00
8627;BME280;4351;51.422;6.794;2023-01-08T02:33:12;97457.28;;;9.90;100.00
8627;BME280;4351;51.422;6.794;2023-01-08T02:35:47;97451.59;;;9.85;100.00
8627;BME280;4351;51.422;6.794;2023-01-08T02:38:23;97447.88;;;9.77;100.00
8627;BME280;4351;51.422;6.794;2023-01-08T02:40:56;97418.91;;;9.96;100.00
8627;BME280;4351;51.422;6.794;2023-01-08T02:43:35;97399.59;;;9.93;100.00
8627;BME280;4351;51.422;6.794;2023-01-08T02:46:13;97389.84;;;9.83;100.00
8627;BME280;4351;51.422;6.794;2023-01-08T02:48:49;97371.50;;;9.87;100.00
8627;BME280;4351;51.422;6.794;2023-01-08T02:51:30;97351.63;;;9.88;100.00
8627;BME280;4351;51.422;6.794;2023-01-08T02:54:16;97344.44;;;9.80;100.00
8627;BME280;4351;51.422;6.794;2023-01-08T02:57:01;97333.66;;;9.80;100.00
8627;BME280;4351;51.422;6.794;2023-01-08T03:00:04;97311.28;;;9.80;100.00
8627;BME280;4351;51.422;6.794;2023-01-08T03:02:48;97296.41;;;10.00;100.00
8627;BME280;4351;51.422;6.794;2023-01-08T03:05:37;97306.06;;;9.86;100.00
8627;BME280;4351;51.422;6.794;2023-01-08T03:08:22;97290.34;;;9.98;100.00
8627;BME280;4351;51.422;6.794;2023-01-08T03:10:54;97290.22;;;9.92;100.00
8627;BME280;4351;51.422;6.794;2023-01-08T03:13:30;97289.72;;;9.88;100.00
8627;BME280;4351;51.422;6.794;2023-01-08T03:16:07;97286.69;;;9.91;100.00
8627;BME280;4351;51.422;6.794;2023-01-08T03:18:43;97285.19;;;9.88;100.00
8627;BME280;4351;51.422;6.794;2023-01-08T03:21:15;97279.63;;;9.90;100.00
8627;BME280;4351;51.422;6.794;2023-01-08T03:23:45;97262.44;;;9.99;100.00
8627;BME280;4351;51.422;6.794;2023-01-08T03:26:19;97282.31;;;9.90;100.00
8627;BME280;4351;51.422;6.794;2023-01-08T03:28:51;97270.84;;;9.96;100.00
8627;BME280;4351;51.422;6.794;2023-01-08T03:31:25;97290.38;;;9.90;100.00
8627;BME280;4351;51.422;6.794;2023-01-08T03:34:00;97295.78;;;9.90;100.00
8627;BME280;4351;51.422;6.794;2023-01-08T03:36:38;97279.56;;;10.07;100.00
8627;BME280;4351;51.422;6.794;2023-01-08T03:39:13;97276.47;;;10.18;100.00
8627;BME280;4351;51.422;6.794;2023-01-08T03:41:45;97288.31;;;10.09;100.00
8627;BME280;4351;51.422;6.794;2023-01-08T03:44:17;97299.94;;;10.01;100.00
8627;BME280;4351;51.422;6.794;2023-01-08T03:46:52;97300.59;;;10.03;100.00
8627;BME280;4351;51.422;6.794;2023-01-08T03:49:26;97295.72;;;10.07;100.00
8627;BME280;4351;51.422;6.794;2023-01-08T03:51:56;97296.03;;;10.12;100.00
8627;BME280;4351;51.422;6.794;2023-01-08T03:54:29;97291.38;;;9.97;100.00
8627;BME280;4351;51.422;6.794;2023-01-08T03:57:00;97290.34;;;9.98;100.00
8627;BME280;4351;51.422;6.794;2023-01-08T03:59:29;97300.47;;;10.05;100.00
8627;BME280;4351;51.422;6.794;2023-01-08T04:01:59;97304.50;;;9.92;100.00
8627;BME280;4351;51.422;6.794;2023-01-08T04:04:29;97292.72;;;10.02;100.00
8627;BME280;4351;51.422;6.794;2023-01-08T04:06:59;97297.47;;;9.91;100.00
8627;BME280;4351;51.422;6.794;2023-01-08T04:09:29;97297.09;;;9.94;100.00
8627;BME280;4351;51.422;6.794;2023-01-08T04:12:01;97286.63;;;10.08;100.00
8627;BME280;4351;51.422;6.794;2023-01-08T04:14:29;97294.41;;;9.94;100.00
8627;BME280;4351;51.422;6.794;2023-01-08T04:17:00;97285.84;;;9.91;100.00
8627;BME280;4351;51.422;6.794;2023-01-08T04:19:29;97300.78;;;10.02;100.00
8627;BME280;4351;51.422;6.794;2023-01-08T04:21:58;97283.97;;;9.99;100.00
8627;BME280;4351;51.422;6.794;2023-01-08T04:24:27;97289.69;;;9.96;100.00
8627;BME280;4351;51.422;6.794;2023-01-08T04:26:56;97281.94;;;10.02;100.00
8627;BME280;4351;51.422;6.794;2023-01-08T04:29:27;97275.41;;;9.96;100.00
8627;BME280;4351;51.422;6.794;2023-01-08T04:31:56;97274.75;;;9.94;100.00
8627;BME280;4351;51.422;6.794;2023-01-08T04:34:26;97269.47;;;10.00;100.00
8627;BME280;4351;51.422;6.794;2023-01-08T04:36:55;97273.72;;;9.95;100.00
8627;BME280;4351;51.422;6.794;2023-01-08T04:39:24;97275.22;;;9.97;100.00
8627;BME280;4351;51.422;6.794;2023-01-08T04:41:53;97261.94;;;9.96;100.00
8627;BME280;4351;51.422;6.794;2023-01-08T04:44:21;97259.41;;;9.94;100.00
8627;BME280;4351;51.422;6.794;2023-01-08T04:46:51;97254.69;;;10.05;100.00
8627;BME280;4351;51.422;6.794;2023-01-08T04:49:21;97265.16;;;9.91;100.00
8627;BME280;4351;51.422;6.794;2023-01-08T04:51:51;97258.09;;;9.90;100.00
8627;BME280;4351;51.422;6.794;2023-01-08T04:54:20;97250.63;;;10.09;100.00
8627;BME280;4351;51.422;6.794;2023-01-08T04:56:55;97242.56;;;10.00;100.00
8627;BME280;4351;51.422;6.794;2023-01-08T04:59:35;97241.59;;;9.93;100.00
8627;BME280;4351;51.422;6.794;2023-01-08T05:02:09;97240.28;;;9.89;100.00
8627;BME280;4351;51.422;6.794;2023-01-08T05:04:42;97245.28;;;9.92;100.00
8627;BME280;4351;51.422;6.794;2023-01-08T05:07:17;97236.81;;;10.04;100.00
8627;BME280;4351;51.422;6.794;2023-01-08T05:09:57;97237.41;;;9.91;100.00
8627;BME280;4351;51.422;6.794;2023-01-08T05:12:34;97228.78;;;9.95;100.00
8627;BME280;4351;51.422;6.794;2023-01-08T05:15:05;97247.16;;;9.83;100.00
8627;BME280;4351;51.422;6.794;2023-01-08T05:17:40;97248.00;;;9.84;100.00
8627;BME280;4351;51.422;6.794;2023-01-08T05:20:21;97248.88;;;9.84;100.00
8627;BME280;4351;51.422;6.794;2023-01-08T05:23:05;97240.81;;;9.76;100.00
8627;BME280;4351;51.422;6.794;2023-01-08T05:25:39;97227.47;;;9.91;100.00
8627;BME280;4351;51.422;6.794;2023-01-08T05:28:12;97237.59;;;9.81;100.00
8627;BME280;4351;51.422;6.794;2023-01-08T05:30:45;97225.06;;;9.96;100.00
8627;BME280;4351;51.422;6.794;2023-01-08T05:33:17;97223.75;;;9.92;100.00
8627;BME280;4351;51.422;6.794;2023-01-08T05:35:56;97235.94;;;9.80;100.00
8627;BME280;4351;51.422;6.794;2023-01-08T05:38:52;97206.22;;;10.05;100.00
8627;BME280;4351;51.422;6.794;2023-01-08T05:41:40;97218.22;;;9.85;100.00
8627;BME280;4351;51.422;6.794;2023-01-08T05:44:18;97222.00;;;9.76;100.00
8627;BME280;4351;51.422;6.794;2023-01-08T05:46:56;97221.63;;;9.79;100.00
8627;BME280;4351;51.422;6.794;2023-01-08T05:49:38;97239.50;;;9.63;100.00
8627;BME280;4351;51.422;6.794;2023-01-08T05:52:18;97234.28;;;9.70;100.00
8627;BME280;4351;51.422;6.794;2023-01-08T05:55:14;97218.94;;;9.79;100.00
8627;BME280;4351;51.422;6.794;2023-01-08T05:57:55;97228.84;;;9.78;100.00
8627;BME280;4351;51.422;6.794;2023-01-08T06:00:31;97234.59;;;9.75;100.00
8627;BME280;4351;51.422;6.794;2023-01-08T06:03:15;97239.75;;;9.85;100.00
8627;BME280;4351;51.422;6.794;2023-01-08T06:06:06;97252.56;;;9.83;100.00
8627;BME280;4351;51.422;6.794;2023-01-08T06:08:47;97257.41;;;9.88;100.00
8627;BME280;4351;51.422;6.794;2023-01-08T06:11:42;97259.06;;;9.97;100.00
8627;BME280;4351;51.422;6.794;2023-01-08T06:14:33;97279.63;;;9.90;100.00
8627;BME280;4351;51.422;6.794;2023-01-08T06:17:13;97298.78;;;9.95;100.00
8627;BME280;4351;51.422;6.794;2023-01-08T06:19:43;97301.41;;;10.12;100.00
8627;BME280;4351;51.422;6.794;2023-01-08T06:22:13;97320.81;;;9.99;100.00
8627;BME280;4351;51.422;6.794;2023-01-08T06:24:41;97350.78;;;9.87;100.00
8627;BME280;4351;51.422;6.794;2023-01-08T06:27:11;97357.16;;;10.03;100.00
8627;BME280;4351;51.422;6.794;2023-01-08T06:29:39;97370.75;;;10.10;100.00
8627;BME280;4351;51.422;6.794;2023-01-08T06:32:08;97401.72;;;10.14;100.00
8627;BME280;4351;51.422;6.794;2023-01-08T06:34:36;97423.25;;;10.14;100.00
8627;BME280;4351;51.422;6.794;2023-01-08T06:37:04;97438.63;;;9.97;100.00
8627;BME280;4351;51.422;6.794;2023-01-08T06:39:32;97466.38;;;9.72;100.00
8627;BME280;4351;51.422;6.794;2023-01-08T06:42:01;97452.09;;;9.72;100.00
8627;BME280;4351;51.422;6.794;2023-01-08T06:44:30;97456.97;;;9.60;100.00
8627;BME280;4351;51.422;6.794;2023-01-08T06:46:58;97474.94;;;9.26;100.00
8627;BME280;4351;51.422;6.794;2023-01-08T06:49:26;97492.53;;;9.12;100.00
8627;BME280;4351;51.422;6.794;2023-01-08T06:51:54;97484.28;;;9.13;100.00
8627;BME280;4351;51.422;6.794;2023-01-08T06:54:22;97466.88;;;9.26;100.00
8627;BME280;4351;51.422;6.794;2023-01-08T06:56:51;97477.72;;;8.99;100.00
8627;BME280;4351;51.422;6.794;2023-01-08T06:59:20;97499.13;;;8.82;100.00
8627;BME280;4351;51.422;6.794;2023-01-08T07:01:50;97486.34;;;8.76;100.00
8627;BME280;4351;51.422;6.794;2023-01-08T07:04:18;97479.97;;;8.77;100.00
8627;BME280;4351;51.422;6.794;2023-01-08T07:06:46;97463.88;;;8.77;100.00
8627;BME280;4351;51.422;6.794;2023-01-08T07:09:15;97455.63;;;8.79;100.00
8627;BME280;4351;51.422;6.794;2023-01-08T07:11:43;97457.06;;;8.65;100.00
8627;BME280;4351;51.422;6.794;2023-01-08T07:14:11;97439.97;;;8.66;100.00
8627;BME280;4351;51.422;6.794;2023-01-08T07:16:39;97439.94;;;8.57;100.00
8627;BME280;4351;51.422;6.794;2023-01-08T07:19:09;97428.63;;;8.54;100.00
8627;BME280;4351;51.422;6.794;2023-01-08T07:21:37;97430.16;;;8.56;100.00
8627;BME280;4351;51.422;6.794;2023-01-08T07:24:05;97426.59;;;8.56;100.00
8627;BME280;4351;51.422;6.794;2023-01-08T07:26:34;97406.13;;;8.55;100.00
8627;BME280;4351;51.422;6.794;2023-01-08T07:29:05;97388.72;;;8.59;100.00
8627;BME280;4351;51.422;6.794;2023-01-08T07:31:33;97386.22;;;8.57;100.00
8627;BME280;4351;51.422;6.794;2023-01-08T07:34:01;97390.66;;;8.40;100.00
8627;BME280;4351;51.422;6.794;2023-01-08T07:36:31;97385.75;;;8.35;100.00
8627;BME280;4351;51.422;6.794;2023-01-08T07:38:59;97392.09;;;8.26;100.00
8627;BME280;4351;51.422;6.794;2023-01-08T07:41:27;97377.84;;;8.34;100.00
8627;BME280;4351;51.422;6.794;2023-01-08T07:43:56;97374.13;;;8.26;100.00
8627;BME280;4351;51.422;6.794;2023-01-08T07:46:24;97351.53;;;8.37;100.00
8627;BME280;4351;51.422;6.794;2023-01-08T07:48:52;97365.22;;;8.26;100.00
8627;BME280;4351;51.422;6.794;2023-01-08T07:51:20;97360.28;;;8.04;100.00
8627;BME280;4351;51.422;6.794;2023-01-08T07:53:50;97334.19;;;8.32;100.00
8627;BME280;4351;51.422;6.794;2023-01-08T07:56:18;97345.19;;;8.12;100.00
8627;BME280;4351;51.422;6.794;2023-01-08T07:58:46;97330.13;;;8.19;100.00
8627;BME280;4351;51.422;6.794;2023-01-08T08:01:14;97320.41;;;8.18;100.00
8627;BME280;4351;51.422;6.794;2023-01-08T08:03:42;97326.72;;;8.09;100.00
8627;BME280;4351;51.422;6.794;2023-01-08T08:06:11;97328.53;;;8.00;100.00
8627;BME280;4351;51.422;6.794;2023-01-08T08:08:39;97333.91;;;8.00;100.00
8627;BME280;4351;51.422;6.794;2023-01-08T08:11:13;97328.56;;;8.08;100.00
8627;BME280;4351;51.422;6.794;2023-01-08T08:13:41;97322.31;;;7.99;100.00
8627;BME280;4351;51.422;6.794;2023-01-08T08:16:11;97328.34;;;7.93;100.00
8627;BME280;4351;51.422;6.794;2023-01-08T08:18:39;97334.56;;;7.93;100.00
8627;BME280;4351;51.422;6.794;2023-01-08T08:21:08;97331.88;;;7.93;100.00
8627;BME280;4351;51.422;6.794;2023-01-08T08:23:36;97336.13;;;7.78;100.00
8627;BME280;4351;51.422;6.794;2023-01-08T08:26:04;97333.97;;;7.81;100.00
8627;BME280;4351;51.422;6.794;2023-01-08T08:28:34;97339.28;;;7.73;100.00
8627;BME280;4351;51.422;6.794;2023-01-08T08:31:03;97331.63;;;7.78;100.00
8627;BME280;4351;51.422;6.794;2023-01-08T08:33:31;97331.44;;;7.80;100.00
8627;BME280;4351;51.422;6.794;2023-01-08T08:35:59;97336.56;;;7.65;100.00
8627;BME280;4351;51.422;6.794;2023-01-08T08:38:27;97324.59;;;7.86;100.00
8627;BME280;4351;51.422;6.794;2023-01-08T08:40:58;97330.09;;;7.76;100.00
8627;BME280;4351;51.422;6.794;2023-01-08T08:43:27;97326.78;;;7.82;100.00
8627;BME280;4351;51.422;6.794;2023-01-08T08:45:56;97317.56;;;7.85;100.00
8627;BME280;4351;51.422;6.794;2023-01-08T08:48:24;97317.28;;;7.96;100.00
8627;BME280;4351;51.422;6.794;2023-01-08T08:50:52;97290.03;;;8.18;100.00
8627;BME280;4351;51.422;6.794;2023-01-08T08:53:21;97298.72;;;8.11;100.00
8627;BME280;4351;51.422;6.794;2023-01-08T08:55:49;97272.63;;;8.38;100.00
8627;BME280;4351;51.422;6.794;2023-01-08T08:58:17;97282.00;;;8.26;100.00
8627;BME280;4351;51.422;6.794;2023-01-08T09:00:45;97283.50;;;8.28;100.00
8627;BME280;4351;51.422;6.794;2023-01-08T09:03:15;97277.06;;;8.65;100.00
8627;BME280;4351;51.422;6.794;2023-01-08T09:05:43;97275.41;;;8.72;100.00
8627;BME280;4351;51.422;6.794;2023-01-08T09:08:11;97265.34;;;9.07;100.00
8627;BME280;4351;51.422;6.794;2023-01-08T09:10:40;97243.91;;;9.48;100.00
8627;BME280;4351;51.422;6.794;2023-01-08T09:13:09;97265.31;;;9.41;100.00
8627;BME280;4351;51.422;6.794;2023-01-08T09:15:37;97259.75;;;9.99;100.00
8627;BME280;4351;51.422;6.794;2023-01-08T09:18:06;97300.16;;;9.91;100.00
8627;BME280;4351;51.422;6.794;2023-01-08T09:20:35;97350.88;;;9.54;100.00
8627;BME280;4351;51.422;6.794;2023-01-08T09:23:03;97374.41;;;9.52;100.00
8627;BME280;4351;51.422;6.794;2023-01-08T09:25:32;97385.84;;;9.62;100.00
8627;BME280;4351;51.422;6.794;2023-01-08T09:28:02;97380.59;;;9.86;100.00
8627;BME280;4351;51.422;6.794;2023-01-08T09:30:31;97413.41;;;9.56;100.00
8627;BME280;4351;51.422;6.794;2023-01-08T09:33:01;97440.47;;;9.38;100.00
8627;BME280;4351;51.422;6.794;2023-01-08T09:35:30;97398.72;;;10.00;100.00
8627;BME280;4351;51.422;6.794;2023-01-08T09:38:00;97415.06;;;9.99;100.00
8627;BME280;4351;51.422;6.794;2023-01-08T09:40:32;97428.72;;;9.89;100.00
8627;BME280;4351;51.422;6.794;2023-01-08T09:43:02;97455.63;;;9.72;100.00
8627;BME280;4351;51.422;6.794;2023-01-08T09:45:34;97480.34;;;9.68;100.00
8627;BME280;4351;51.422;6.794;2023-01-08T09:48:06;97475.81;;;9.85;100.00
8627;BME280;4351;51.422;6.794;2023-01-08T09:50:39;97501.38;;;9.56;100.00
8627;BME280;4351;51.422;6.794;2023-01-08T09:53:12;97504.91;;;9.64;100.00
8627;BME280;4351;51.422;6.794;2023-01-08T09:55:41;97530.09;;;9.38;100.00
8627;BME280;4351;51.422;6.794;2023-01-08T09:58:20;97525.22;;;9.42;100.00
8627;BME280;4351;51.422;6.794;2023-01-08T10:00:51;97538.16;;;9.30;100.00
8627;BME280;4351;51.422;6.794;2023-01-08T10:03:21;97528.94;;;9.41;100.00
8627;BME280;4351;51.422;6.794;2023-01-08T10:05:52;97531.63;;;9.49;100.00
8627;BME280;4351;51.422;6.794;2023-01-08T10:08:22;97531.94;;;9.46;100.00
8627;BME280;4351;51.422;6.794;2023-01-08T10:10:50;97524.22;;;9.51;100.00
8627;BME280;4351;51.422;6.794;2023-01-08T10:13:18;97522.91;;;9.64;100.00
8627;BME280;4351;51.422;6.794;2023-01-08T10:15:47;97509.97;;;9.84;100.00
8627;BME280;4351;51.422;6.794;2023-01-08T10:18:17;97508.09;;;9.76;100.00
8627;BME280;4351;51.422;6.794;2023-01-08T10:20:46;97500.03;;;9.93;100.00
8627;BME280;4351;51.422;6.794;2023-01-08T10:23:16;97514.31;;;9.85;100.00
8627;BME280;4351;51.422;6.794;2023-01-08T10:25:52;97496.84;;;9.98;100.00
8627;BME280;4351;51.422;6.794;2023-01-08T10:28:22;97522.09;;;9.88;100.00
8627;BME280;4351;51.422;6.794;2023-01-08T10:30:52;97528.63;;;9.94;100.00
8627;BME280;4351;51.422;6.794;2023-01-08T10:33:23;97534.88;;;9.95;100.00
8627;BME280;4351;51.422;6.794;2023-01-08T10:35:56;97546.50;;;9.87;100.00
8627;BME280;4351;51.422;6.794;2023-01-08T10:38:29;97561.63;;;9.96;100.00
8627;BME280;4351;51.422;6.794;2023-01-08T10:41:02;97576.09;;;10.04;100.00
8627;BME280;4351;51.422;6.794;2023-01-08T10:43:33;97588.91;;;10.02;100.00
8627;BME280;4351;51.422;6.794;2023-01-08T10:46:06;97596.97;;;10.02;100.00
8627;BME280;4351;51.422;6.794;2023-01-08T10:48:38;97604.06;;;10.11;100.00
8627;BME280;4351;51.422;6.794;2023-01-08T10:51:12;97611.28;;;10.19;100.00
8627;BME280;4351;51.422;6.794;2023-01-08T10:53:41;97627.09;;;10.14;100.00
8627;BME280;4351;51.422;6.794;2023-01-08T10:56:18;97634.53;;;10.20;100.00
8627;BME280;4351;51.422;6.794;2023-01-08T10:58:48;97649.53;;;10.31;100.00
8627;BME280;4351;51.422;6.794;2023-01-08T11:01:20;97656.94;;;10.45;100.00
8627;BME280;4351;51.422;6.794;2023-01-08T11:03:50;97671.97;;;10.56;100.00
8627;BME280;4351;51.422;6.794;2023-01-08T11:06:20;97705.47;;;10.62;100.00
8627;BME280;4351;51.422;6.794;2023-01-08T11:08:51;97741.13;;;10.39;100.00
8627;BME280;4351;51.422;6.794;2023-01-08T11:11:22;97749.22;;;10.48;100.00
8627;BME280;4351;51.422;6.794;2023-01-08T11:13:55;97752.31;;;10.53;100.00
8627;BME280;4351;51.422;6.794;2023-01-08T11:16:36;97753.81;;;10.55;100.00
8627;BME280;4351;51.422;6.794;2023-01-08T11:19:14;97754.66;;;10.64;100.00
8627;BME280;4351;51.422;6.794;2023-01-08T11:21:53;97763.41;;;10.66;100.00
8627;BME280;4351;51.422;6.794;2023-01-08T11:24:24;97770.34;;;10.61;100.00
8627;BME280;4351;51.422;6.794;2023-01-08T11:26:58;97788.50;;;10.50;100.00
8627;BME280;4351;51.422;6.794;2023-01-08T11:29:33;97803.28;;;10.38;100.00
8627;BME280;4351;51.422;6.794;2023-01-08T11:32:24;97804.28;;;10.45;100.00
8627;BME280;4351;51.422;6.794;2023-01-08T11:34:59;97800.59;;;10.38;100.00
8627;BME280;4351;51.422;6.794;2023-01-08T11:37:32;97803.63;;;10.43;100.00
8627;BME280;4351;51.422;6.794;2023-01-08T11:40:02;97798.13;;;10.61;100.00
8627;BME280;4351;51.422;6.794;2023-01-08T11:42:50;97805.13;;;10.37;100.00
8627;BME280;4351;51.422;6.794;2023-01-08T11:45:26;97791.00;;;10.43;100.00
8627;BME280;4351;51.422;6.794;2023-01-08T11:48:08;97800.41;;;10.31;100.00
8627;BME280;4351;51.422;6.794;2023-01-08T11:50:44;97774.81;;;10.43;100.00
8627;BME280;4351;51.422;6.794;2023-01-08T11:53:21;97771.25;;;10.26;100.00
8627;BME280;4351;51.422;6.794;2023-01-08T11:56:03;97754.72;;;10.21;100.00
8627;BME280;4351;51.422;6.794;2023-01-08T11:58:50;97725.53;;;9.99;100.00
8627;BME280;4351;51.422;6.794;2023-01-08T12:01:35;97677.59;;;10.03;100.00
8627;BME280;4351;51.422;6.794;2023-01-08T12:04:22;97628.44;;;9.93;100.00
8627;BME280;4351;51.422;6.794;2023-01-08T12:07:02;97575.44;;;9.85;100.00
8627;BME280;4351;51.422;6.794;2023-01-08T12:09:38;97560.75;;;9.87;100.00
8627;BME280;4351;51.422;6.794;2023-01-08T12:12:14;97610.75;;;8.95;100.00
8627;BME280;4351;51.422;6.794;2023-01-08T12:14:55;97592.91;;;8.40;100.00
8627;BME280;4351;51.422;6.794;2023-01-08T12:17:37;97584.34;;;8.19;100.00
8627;BME280;4351;51.422;6.794;2023-01-08T12:20:20;97546.84;;;8.09;100.00
8627;BME280;4351;51.422;6.794;2023-01-08T12:22:58;97519.28;;;8.25;100.00
8627;BME280;4351;51.422;6.794;2023-01-08T12:25:53;97499.28;;;8.19;100.00
8627;BME280;4351;51.422;6.794;2023-01-08T12:28:45;97467.44;;;8.24;100.00
8627;BME280;4351;51.422;6.794;2023-01-08T12:31:42;97454.66;;;8.18;100.00
8627;BME280;4351;51.422;6.794;2023-01-08T12:34:35;97423.72;;;8.14;100.00
8627;BME280;4351;51.422;6.794;2023-01-08T12:37:10;97409.69;;;8.20;100.00
8627;BME280;4351;51.422;6.794;2023-01-08T12:39:47;97369.00;;;8.42;100.00
8627;BME280;4351;51.422;6.794;2023-01-08T12:42:21;97281.94;;;9.36;100.00
8627;BME280;4351;51.422;6.794;2023-01-08T12:44:53;97272.41;;;9.17;100.00
8627;BME280;4351;51.422;6.794;2023-01-08T12:47:26;97263.97;;;9.12;100.00
8627;BME280;4351;51.422;6.794;2023-01-08T12:50:05;97251.53;;;9.11;100.00
8627;BME280;4351;51.422;6.794;2023-01-08T12:52:41;97227.97;;;9.38;100.00
8627;BME280;4351;51.422;6.794;2023-01-08T12:55:16;97216.38;;;9.37;100.00
8627;BME280;4351;51.422;6.794;2023-01-08T12:57:52;97200.34;;;9.61;100.00
8627;BME280;4351;51.422;6.794;2023-01-08T13:00:29;97184.47;;;9.74;100.00
8627;BME280;4351;51.422;6.794;2023-01-08T13:03:08;97196.28;;;9.65;100.00
8627;BME280;4351;51.422;6.794;2023-01-08T13:05:37;97183.66;;;9.74;100.00
8627;BME280;4351;51.422;6.794;2023-01-08T13:08:30;97203.16;;;9.68;100.00
8627;BME280;4351;51.422;6.794;2023-01-08T13:11:00;97208.88;;;9.73;100.00
8627;BME280;4351;51.422;6.794;2023-01-08T13:13:30;97199.88;;;9.89;100.00
8627;BME280;4351;51.422;6.794;2023-01-08T13:16:07;97217.88;;;9.88;100.00
8627;BME280;4351;51.422;6.794;2023-01-08T13:18:37;97220.44;;;9.82;100.00
8627;BME280;4351;51.422;6.794;2023-01-08T13:21:09;97227.28;;;9.93;100.00
8627;BME280;4351;51.422;6.794;2023-01-08T13:23:38;97240.59;;;9.86;100.00
8627;BME280;4351;51.422;6.794;2023-01-08T13:26:06;97233.66;;;9.92;100.00
8627;BME280;4351;51.422;6.794;2023-01-08T13:28:41;97253.69;;;9.97;100.00
8627;BME280;4351;51.422;6.794;2023-01-08T13:31:25;97282.69;;;9.87;100.00
8627;BME280;4351;51.422;6.794;2023-01-08T13:33:55;97269.63;;;10.07;100.00
8627;BME280;4351;51.422;6.794;2023-01-08T13:36:25;97276.47;;;10.18;100.00
8627;BME280;4351;51.422;6.794;2023-01-08T13:39:01;97311.53;;;10.10;100.00
8627;BME280;4351;51.422;6.794;2023-01-08T13:41:30;97305.09;;;10.19;100.00
8627;BME280;4351;51.422;6.794;2023-01-08T13:44:01;97328.03;;;10.07;100.00
8627;BME280;4351;51.422;6.794;2023-01-08T13:46:32;97363.41;;;9.95;100.00
8627;BME280;4351;51.422;6.794;2023-01-08T13:49:05;97368.13;;;9.93;100.00
8627;BME280;4351;51.422;6.794;2023-01-08T13:51:40;97373.16;;;9.96;100.00